Time;durP1;ratioP1;P1;durP2;ratioP2;P2;SDS_P1;SDS_P2;PMS_P1;PMS_P2;Temp;Humidity;BMP_temperature;BMP_pressure;BME280_temperature;BME280_humidity;BME280_pressure;Samples;Min_cycle;Max_cycle;Signal;HPM_P1;HPM_P2
2020/12/10 00:01:19;;;;;;;94.33;41.90;;;;;;;0.56;100.00;99653.78;5100195;28;20449;-29
2020/12/10 00:04:04;;;;;;;85.47;40.60;;;;;;;0.57;100.00;99659.75;5098907;28;20956;-29
2020/12/10 00:06:50;;;;;;;84.57;39.47;;;;;;;0.51;100.00;99652.81;5103027;28;20198;-29
2020/12/10 00:09:36;;;;;;;98.03;42.63;;;;;;;0.57;100.00;99647.88;5102482;28;20444;-29
2020/12/10 00:12:26;;;;;;;91.50;42.10;;;;;;;0.62;100.00;99641.19;5099333;28;20534;-28
2020/12/10 00:15:12;;;;;;;88.80;41.73;;;;;;;0.56;100.00;99637.66;5099940;28;20794;-29
2020/12/10 00:18:01;;;;;;;78.27;38.43;;;;;;;0.58;100.00;99636.00;5099108;28;20568;-29
2020/12/10 00:20:47;;;;;;;85.50;41.73;;;;;;;0.59;100.00;99633.50;5099387;28;20449;-29
2020/12/10 00:23:33;;;;;;;77.63;39.90;;;;;;;0.58;100.00;99621.59;5099027;28;20446;-28
2020/12/10 00:26:20;;;;;;;113.00;46.77;;;;;;;0.89;100.00;99620.53;5099069;28;20258;-29
2020/12/10 00:29:06;;;;;;;103.80;44.83;;;;;;;1.23;100.00;99619.44;5100462;28;20579;-29
2020/12/10 00:31:52;;;;;;;94.47;44.30;;;;;;;1.58;100.00;99612.44;5099465;28;20503;-29
2020/12/10 00:34:37;;;;;;;83.87;41.20;;;;;;;0.92;100.00;99610.41;5098864;28;20357;-29
2020/12/10 00:37:25;;;;;;;101.43;44.27;;;;;;;0.90;100.00;99609.50;5099897;28;20456;-29
2020/12/10 00:40:10;;;;;;;95.37;43.97;;;;;;;1.54;100.00;99610.66;5100445;28;20747;-29
2020/12/10 00:42:58;;;;;;;102.07;45.80;;;;;;;1.69;100.00;99599.84;5099629;28;20448;-29
2020/12/10 00:45:46;;;;;;;104.60;45.17;;;;;;;1.72;100.00;99603.31;5100203;28;20363;-29
2020/12/10 00:48:31;;;;;;;110.40;47.07;;;;;;;1.71;100.00;99608.38;5099959;28;20547;-29
2020/12/10 00:51:17;;;;;;;86.47;43.33;;;;;;;1.90;100.00;99612.06;5099645;28;20704;-29
2020/12/10 00:54:03;;;;;;;102.80;44.47;;;;;;;1.94;100.00;99622.34;5099352;28;20465;-29
2020/12/10 00:56:49;;;;;;;87.37;42.43;;;;;;;1.98;100.00;99618.16;5100085;28;20203;-30
2020/12/10 00:59:35;;;;;;;86.43;41.30;;;;;;;2.02;100.00;99622.44;5100330;28;20476;-29
2020/12/10 01:02:21;;;;;;;97.13;45.00;;;;;;;1.89;100.00;99618.88;5100370;28;20308;-29
2020/12/10 01:05:08;;;;;;;88.87;42.60;;;;;;;1.93;100.00;99615.53;5099062;28;20468;-29
2020/12/10 01:07:54;;;;;;;86.90;43.83;;;;;;;2.04;100.00;99608.88;5099015;28;20531;-30
2020/12/10 01:10:39;;;;;;;100.53;46.53;;;;;;;2.07;100.00;99611.50;5098489;28;20572;-29
2020/12/10 01:13:25;;;;;;;76.83;38.00;;;;;;;1.46;100.00;99617.31;5098776;28;20449;-29
2020/12/10 01:16:11;;;;;;;73.93;38.60;;;;;;;1.01;100.00;99623.28;5098008;28;20781;-29
2020/12/10 01:18:58;;;;;;;85.57;39.53;;;;;;;1.11;100.00;99614.16;5098228;28;20235;-29
2020/12/10 01:21:43;;;;;;;72.83;36.23;;;;;;;0.95;100.00;99613.00;5099037;28;20416;-29
2020/12/10 01:24:29;;;;;;;77.37;39.00;;;;;;;0.86;100.00;99615.38;5098537;28;20433;-29
2020/12/10 01:27:14;;;;;;;75.80;40.13;;;;;;;0.84;100.00;99606.84;5098158;28;20444;-28
2020/12/10 01:30:00;;;;;;;68.60;37.33;;;;;;;0.88;100.00;99595.88;5100084;28;20445;-29
2020/12/10 01:32:46;;;;;;;84.70;41.07;;;;;;;0.79;100.00;99598.28;5099080;28;20471;-29
2020/12/10 01:35:33;;;;;;;78.53;38.80;;;;;;;0.85;100.00;99595.81;5101096;28;20279;-28
2020/12/10 01:38:19;;;;;;;86.90;39.73;;;;;;;0.90;100.00;99601.00;5098828;28;20290;-28
2020/12/10 01:41:06;;;;;;;79.17;38.97;;;;;;;0.86;100.00;99596.69;5102764;28;20465;-28
2020/12/10 01:44:00;;;;;;;89.70;43.33;;;;;;;1.41;100.00;99587.47;5098860;28;20191;-29
2020/12/10 01:46:45;;;;;;;87.60;41.90;;;;;;;1.81;100.00;99573.69;5101993;28;20257;-28
2020/12/10 01:49:35;;;;;;;103.17;43.67;;;;;;;1.68;100.00;99573.50;5101508;28;20257;-29
2020/12/10 01:52:21;;;;;;;91.30;43.33;;;;;;;1.61;100.00;99578.47;5103362;28;20672;-29
2020/12/10 01:55:07;;;;;;;82.83;41.23;;;;;;;1.91;100.00;99570.44;5102333;28;20191;-29
2020/12/10 01:57:53;;;;;;;92.90;43.07;;;;;;;1.92;100.00;99577.25;5102838;28;20202;-29
2020/12/10 02:00:38;;;;;;;99.03;44.60;;;;;;;1.66;100.00;99572.63;5102913;28;20226;-29
2020/12/10 02:03:24;;;;;;;89.27;43.07;;;;;;;1.87;100.00;99573.78;5102135;28;20478;-29
2020/12/10 02:06:10;;;;;;;84.37;42.07;;;;;;;1.55;100.00;99570.75;5101631;28;20445;-29
2020/12/10 02:08:57;;;;;;;84.23;39.90;;;;;;;1.15;100.00;99561.59;5103164;28;20449;-29
2020/12/10 02:11:43;;;;;;;88.93;42.03;;;;;;;1.30;100.00;99562.69;5101258;28;20253;-29
2020/12/10 02:14:32;;;;;;;94.80;44.57;;;;;;;1.26;100.00;99567.72;5102935;28;20562;-29
2020/12/10 02:17:18;;;;;;;88.50;41.57;;;;;;;1.64;100.00;99559.00;5101951;28;20449;-29
2020/12/10 02:20:05;;;;;;;84.97;40.83;;;;;;;1.48;100.00;99567.22;5101943;28;20511;-29
2020/12/10 02:23:01;;;;;;;69.60;36.53;;;;;;;1.01;100.00;99558.78;5101493;28;20207;-29
2020/12/10 02:25:47;;;;;;;65.77;36.07;;;;;;;0.74;100.00;99561.69;5101271;28;20583;-28
2020/12/10 02:28:32;;;;;;;97.10;49.97;;;;;;;0.81;100.00;99552.47;5101272;28;20222;-29
2020/12/10 02:31:22;;;;;;;81.37;39.77;;;;;;;0.74;100.00;99551.50;5101480;28;20202;-28
2020/12/10 02:34:08;;;;;;;77.63;38.57;;;;;;;0.61;100.00;99552.09;5101570;28;20460;-28
2020/12/10 02:36:54;;;;;;;76.30;37.00;;;;;;;0.62;100.00;99546.16;5100411;28;20493;-28
2020/12/10 02:39:41;;;;;;;71.87;39.87;;;;;;;0.60;100.00;99542.78;5101081;28;20285;-28
2020/12/10 02:42:26;;;;;;;73.40;37.40;;;;;;;0.53;100.00;99543.47;5102113;28;20449;-28
2020/12/10 02:45:12;;;;;;;81.07;40.23;;;;;;;0.50;100.00;99536.63;5102729;28;20520;-31
2020/12/10 02:47:58;;;;;;;69.87;36.33;;;;;;;0.54;100.00;99532.47;5100679;28;20437;-28
2020/12/10 02:50:44;;;;;;;77.53;37.60;;;;;;;0.47;100.00;99534.03;5100613;28;20503;-28
2020/12/10 02:53:30;;;;;;;71.13;36.57;;;;;;;0.41;100.00;99526.25;5100307;28;20433;-28
2020/12/10 02:56:16;;;;;;;71.73;36.33;;;;;;;0.38;100.00;99535.53;5099776;28;20437;-28
2020/12/10 02:59:02;;;;;;;69.67;35.13;;;;;;;0.32;100.00;99526.94;5101547;28;20445;-28
2020/12/10 03:01:52;;;;;;;71.57;35.70;;;;;;;0.39;100.00;99516.91;5100953;28;20715;-28
2020/12/10 03:04:38;;;;;;;66.60;34.93;;;;;;;0.45;100.00;99522.09;5100988;28;20444;-29
2020/12/10 03:07:23;;;;;;;75.20;36.07;;;;;;;0.51;100.00;99527.31;5101899;28;20813;-28
2020/12/10 03:10:09;;;;;;;80.23;38.10;;;;;;;0.52;100.00;99521.41;5101653;28;20878;-28
2020/12/10 03:12:55;;;;;;;73.00;36.00;;;;;;;0.56;100.00;99520.63;5101325;28;20468;-28
2020/12/10 03:15:41;;;;;;;70.60;36.63;;;;;;;0.62;100.00;99515.63;5101353;28;20515;-29
2020/12/10 03:18:27;;;;;;;76.03;37.93;;;;;;;0.61;100.00;99513.91;5100937;28;20877;-28
2020/12/10 03:21:15;;;;;;;85.13;40.50;;;;;;;0.71;100.00;99504.78;5099983;28;20489;-28
2020/12/10 03:24:01;;;;;;;84.17;41.43;;;;;;;0.64;100.00;99501.25;5100539;28;20198;-28
2020/12/10 03:26:46;;;;;;;93.77;44.37;;;;;;;0.81;100.00;99496.47;5100439;28;20452;-28
2020/12/10 03:29:33;;;;;;;71.40;35.63;;;;;;;0.56;100.00;99490.09;5100392;28;20461;-28
2020/12/10 03:32:18;;;;;;;70.77;35.47;;;;;;;0.47;100.00;99484.84;5101776;28;20961;-28
2020/12/10 03:35:05;;;;;;;70.33;36.17;;;;;;;0.46;100.00;99483.13;5100572;28;20507;-28
2020/12/10 03:37:51;;;;;;;67.57;35.57;;;;;;;0.45;100.00;99477.16;5100087;28;20449;-28
2020/12/10 03:40:37;;;;;;;74.63;35.60;;;;;;;0.45;100.00;99476.31;5101134;28;20487;-28
2020/12/10 03:43:23;;;;;;;78.67;37.93;;;;;;;0.56;100.00;99472.28;5099407;28;20503;-28
2020/12/10 03:46:09;;;;;;;72.43;36.03;;;;;;;0.68;100.00;99475.91;5100715;28;20441;-28
2020/12/10 03:48:55;;;;;;;78.03;35.20;;;;;;;0.56;100.00;99479.94;5106149;28;20444;-28
2020/12/10 03:51:41;;;;;;;74.83;36.07;;;;;;;0.67;100.00;99478.41;5099989;28;20437;-28
2020/12/10 03:54:26;;;;;;;78.30;38.63;;;;;;;0.67;100.00;99476.72;5098969;28;20441;-28
2020/12/10 03:57:13;;;;;;;89.37;40.73;;;;;;;0.77;100.00;99480.31;5099030;28;20452;-28
2020/12/10 03:59:58;;;;;;;73.53;37.10;;;;;;;0.73;100.00;99482.78;5099400;28;20576;-28
2020/12/10 04:02:45;;;;;;;77.80;36.97;;;;;;;0.71;100.00;99477.66;5099250;28;20490;-28
2020/12/10 04:05:31;;;;;;;76.27;37.47;;;;;;;0.61;100.00;99463.91;5099077;28;20199;-28
2020/12/10 04:08:17;;;;;;;93.57;41.60;;;;;;;0.58;100.00;99465.56;5098432;28;20917;-28
2020/12/10 04:11:03;;;;;;;82.63;38.57;;;;;;;0.59;100.00;99468.13;5098989;28;20195;-28
2020/12/10 04:13:48;;;;;;;99.13;43.80;;;;;;;0.58;100.00;99465.56;5099029;28;20511;-28
2020/12/10 04:16:34;;;;;;;85.70;41.83;;;;;;;0.80;100.00;99465.06;5098876;28;20285;-28
2020/12/10 04:19:21;;;;;;;91.00;41.47;;;;;;;0.66;100.00;99469.06;5098505;28;20438;-28
2020/12/10 04:22:07;;;;;;;94.67;42.50;;;;;;;0.65;100.00;99470.75;5098662;28;20437;-28
2020/12/10 04:24:52;;;;;;;104.50;44.47;;;;;;;0.81;100.00;99473.56;5098780;28;20441;-28
2020/12/10 04:27:38;;;;;;;102.03;44.37;;;;;;;0.79;100.00;99478.66;5102601;28;20481;-29
2020/12/10 04:30:24;;;;;;;99.23;44.00;;;;;;;0.79;100.00;99477.81;5099735;28;20910;-27
2020/12/10 04:33:09;;;;;;;99.90;42.73;;;;;;;0.83;100.00;99469.34;5098672;28;20198;-28
2020/12/10 04:35:56;;;;;;;114.93;45.47;;;;;;;0.81;100.00;99474.41;5099335;28;20265;-28
2020/12/10 04:38:41;;;;;;;104.37;42.80;;;;;;;0.88;100.00;99470.31;5100946;28;20619;-29
2020/12/10 04:41:30;;;;;;;103.70;42.77;;;;;;;0.93;100.00;99476.34;5098981;28;20250;-28
2020/12/10 04:44:17;;;;;;;91.93;40.20;;;;;;;0.95;100.00;99474.69;5098981;28;20720;-28
2020/12/10 04:47:02;;;;;;;105.63;43.10;;;;;;;1.17;100.00;99475.88;5098536;28;20289;-28
2020/12/10 04:49:49;;;;;;;106.03;42.17;;;;;;;1.02;100.00;99469.69;5098423;28;20621;-28
2020/12/10 04:52:36;;;;;;;112.00;41.30;;;;;;;1.18;100.00;99464.88;5099545;28;20776;-29
2020/12/10 04:55:23;;;;;;;107.40;41.50;;;;;;;1.11;100.00;99471.53;5099264;28;20194;-28
2020/12/10 04:58:10;;;;;;;100.07;40.40;;;;;;;0.96;100.00;99471.31;5099967;28;20449;-28
2020/12/10 05:00:58;;;;;;;100.33;41.80;;;;;;;0.83;100.00;99474.44;5098636;28;20227;-29
2020/12/10 05:03:45;;;;;;;96.87;39.50;;;;;;;0.77;100.00;99470.13;5099882;28;20588;-28
2020/12/10 05:06:31;;;;;;;98.20;39.77;;;;;;;0.77;100.00;99477.78;5098931;28;20280;-28
2020/12/10 05:09:18;;;;;;;91.83;38.07;;;;;;;0.83;100.00;99471.91;5098753;28;20199;-28
2020/12/10 05:12:17;;;;;;;103.63;40.43;;;;;;;0.78;100.00;99476.94;5098025;28;20469;-27
2020/12/10 05:15:03;;;;;;;97.90;39.90;;;;;;;0.70;100.00;99478.47;5111813;28;20199;-28
2020/12/10 05:17:49;;;;;;;96.97;37.60;;;;;;;0.71;100.00;99477.66;5118722;28;20239;-28
2020/12/10 05:20:40;;;;;;;106.03;39.57;;;;;;;0.71;100.00;99480.19;5122084;28;20226;-28
2020/12/10 05:23:31;;;;;;;100.17;38.90;;;;;;;0.69;100.00;99476.75;5126826;28;20198;-28
2020/12/10 05:26:18;;;;;;;101.77;38.13;;;;;;;0.69;100.00;99481.84;5121985;28;20195;-28
2020/12/10 05:29:04;;;;;;;88.17;38.70;;;;;;;0.72;100.00;99476.81;5122124;28;20476;-30
2020/12/10 05:31:52;;;;;;;98.70;38.77;;;;;;;0.76;100.00;99472.66;5121917;28;20599;-28
2020/12/10 05:34:38;;;;;;;106.40;40.27;;;;;;;0.73;100.00;99478.53;5121399;28;20221;-28
2020/12/10 05:37:28;;;;;;;101.03;41.60;;;;;;;0.74;100.00;99476.84;5127294;28;20665;-28
2020/12/10 05:40:15;;;;;;;113.83;41.27;;;;;;;0.81;100.00;99473.56;5128471;27;20310;-28
2020/12/10 05:43:02;;;;;;;112.03;40.20;;;;;;;0.73;100.00;99468.38;5128939;28;20209;-28
2020/12/10 05:45:51;;;;;;;103.83;36.97;;;;;;;0.79;100.00;99470.16;5127994;28;20198;-28
2020/12/10 05:48:38;;;;;;;107.87;37.97;;;;;;;0.70;100.00;99475.94;5122133;28;20433;-28
2020/12/10 05:51:24;;;;;;;108.27;38.80;;;;;;;0.76;100.00;99476.06;5122088;28;20436;-28
2020/12/10 05:54:11;;;;;;;105.97;39.30;;;;;;;0.80;100.00;99466.78;5122613;28;20439;-28
2020/12/10 05:56:58;;;;;;;99.77;37.07;;;;;;;0.80;100.00;99470.16;5122449;28;20444;-28
2020/12/10 05:59:45;;;;;;;98.70;39.17;;;;;;;0.75;100.00;99468.38;5122902;28;20750;-28
2020/12/10 06:02:31;;;;;;;103.43;39.13;;;;;;;0.78;100.00;99468.44;5121994;28;20451;-28
2020/12/10 06:05:18;;;;;;;115.97;39.53;;;;;;;0.90;100.00;99466.97;5123452;28;20202;-28
2020/12/10 06:08:05;;;;;;;132.10;41.40;;;;;;;0.98;100.00;99467.94;5121844;28;20195;-28
2020/12/10 06:10:52;;;;;;;107.90;39.40;;;;;;;0.86;100.00;99465.19;5122812;28;20502;-28
2020/12/10 06:13:39;;;;;;;107.37;38.67;;;;;;;0.77;100.00;99465.03;5121715;28;20448;-28
2020/12/10 06:16:25;;;;;;;102.33;38.13;;;;;;;0.78;100.00;99461.66;5121996;28;20444;-28
2020/12/10 06:19:13;;;;;;;117.40;38.67;;;;;;;0.81;100.00;99464.25;5121024;28;20436;-28
2020/12/10 06:22:19;;;;;;;116.80;39.20;;;;;;;0.87;100.00;99460.94;5120969;28;20340;-28
2020/12/10 06:25:28;;;;;;;103.63;38.37;;;;;;;0.74;100.00;99465.00;5122510;28;20447;-28
2020/12/10 06:28:18;;;;;;;111.15;49.03;;;;;;;0.66;100.00;99461.44;5120732;28;20474;-28
2020/12/10 06:31:05;;;;;;;103.17;41.00;;;;;;;0.63;100.00;99453.75;5120454;28;20292;-27
2020/12/10 06:33:52;;;;;;;122.33;42.40;;;;;;;0.68;100.00;99459.78;5122461;28;20199;-28
2020/12/10 06:36:38;;;;;;;118.97;40.57;;;;;;;0.71;100.00;99454.75;5120863;28;20199;-28
2020/12/10 06:39:37;;;;;;;116.23;40.90;;;;;;;0.66;100.00;99467.38;5122173;28;20347;-27
2020/12/10 06:42:23;;;;;;;115.53;40.37;;;;;;;0.64;100.00;99466.50;5121185;28;20202;-28
2020/12/10 06:45:34;;;;;;;126.63;41.50;;;;;;;0.67;100.00;99456.38;5120251;28;20256;-28
2020/12/10 06:48:19;;;;;;;114.27;38.70;;;;;;;0.69;100.00;99461.50;5122275;28;20490;-28
2020/12/10 06:51:22;;;;;;;112.27;38.33;;;;;;;0.86;100.00;99465.19;5120811;28;20495;-28
2020/12/10 06:54:17;;;;;;;139.07;44.60;;;;;;;0.94;100.00;99467.88;5120400;28;20194;-28
2020/12/10 06:57:06;;;;;;;133.43;44.43;;;;;;;1.16;100.00;99472.47;5119031;28;20444;-28
2020/12/10 06:59:52;;;;;;;115.40;40.43;;;;;;;0.93;100.00;99467.00;5119521;28;20198;-27
2020/12/10 07:02:38;;;;;;;114.30;41.70;;;;;;;0.90;100.00;99476.28;5099952;28;20901;-28
2020/12/10 07:05:31;;;;;;;135.93;44.93;;;;;;;1.20;100.00;99468.31;5099529;28;20874;-33
2020/12/10 07:08:18;;;;;;;120.30;40.10;;;;;;;1.45;100.00;99475.47;5099073;28;20507;-28
2020/12/10 07:11:04;;;;;;;130.50;44.23;;;;;;;1.59;100.00;99470.59;5099295;28;20584;-28
2020/12/10 07:13:49;;;;;;;138.90;44.43;;;;;;;1.42;100.00;99475.41;5100063;28;20588;-28
2020/12/10 07:16:35;;;;;;;128.63;44.77;;;;;;;1.24;100.00;99473.44;5101780;28;20444;-28
2020/12/10 07:19:25;;;;;;;151.03;46.50;;;;;;;1.24;100.00;99485.31;5102631;28;20441;-28
2020/12/10 07:22:13;;;;;;;140.90;46.13;;;;;;;1.60;100.00;99483.31;5098942;28;20450;-28
2020/12/10 07:24:59;;;;;;;139.47;46.07;;;;;;;1.70;100.00;99489.41;5099563;28;20444;-28
2020/12/10 07:27:45;;;;;;;134.30;47.50;;;;;;;1.75;100.00;99482.69;5098852;28;20222;-28
2020/12/10 07:30:31;;;;;;;131.13;51.23;;;;;;;1.74;100.00;99478.44;5099260;28;20234;-28
2020/12/10 07:33:21;;;;;;;136.60;48.77;;;;;;;1.60;100.00;99478.22;5099635;28;20507;-28
2020/12/10 07:36:08;;;;;;;142.27;49.73;;;;;;;1.68;100.00;99483.44;5098875;28;20218;-28
2020/12/10 07:38:53;;;;;;;129.67;46.30;;;;;;;1.77;100.00;99480.19;5097778;28;20308;-32
2020/12/10 07:41:40;;;;;;;140.97;48.40;;;;;;;1.86;100.00;99488.78;5097455;28;20325;-28
2020/12/10 07:44:26;;;;;;;144.10;48.53;;;;;;;1.83;100.00;99485.34;5099245;28;20794;-28
2020/12/10 07:47:27;;;;;;;126.13;47.60;;;;;;;1.59;100.00;99486.72;5116211;28;20256;-28
2020/12/10 07:50:21;;;;;;;139.30;46.10;;;;;;;1.40;100.00;99474.53;5120194;28;20433;-28
2020/12/10 07:53:09;;;;;;;151.53;47.83;;;;;;;1.47;100.00;99475.47;5120767;28;20291;-28
2020/12/10 07:56:00;;;;;;;129.20;43.10;;;;;;;2.03;100.00;99468.59;5118931;28;20623;-29
2020/12/10 07:58:51;;;;;;;132.47;44.60;;;;;;;2.33;100.00;99466.44;5120614;28;20202;-28
2020/12/10 08:01:48;;;;;;;139.40;46.53;;;;;;;2.24;100.00;99468.84;5119565;28;20499;-28
2020/12/10 08:04:35;;;;;;;135.33;46.77;;;;;;;2.12;100.00;99465.31;5119212;28;20194;-28
2020/12/10 08:07:20;;;;;;;133.03;45.80;;;;;;;2.00;100.00;99473.66;5119067;28;20214;-28
2020/12/10 08:10:19;;;;;;;148.67;45.90;;;;;;;2.29;100.00;99474.88;5119122;28;20248;-29
2020/12/10 08:13:13;;;;;;;146.87;45.03;;;;;;;2.11;100.00;99482.31;5118734;28;20197;-28
2020/12/10 08:16:09;;;;;;;131.87;43.03;;;;;;;1.66;100.00;99480.88;5118870;28;20278;-28
2020/12/10 08:18:55;;;;;;;123.67;41.87;;;;;;;1.58;100.00;99482.47;5118520;28;20194;-28
2020/12/10 08:21:45;;;;;;;114.87;43.20;;;;;;;1.56;100.00;99484.13;5124152;28;20218;-28
2020/12/10 08:24:39;;;;;;;132.90;42.73;;;;;;;1.97;100.00;99473.66;5121396;28;20274;-28
2020/12/10 08:27:25;;;;;;;110.80;40.30;;;;;;;1.88;100.00;99481.16;5118889;28;20194;-28
2020/12/10 08:30:11;;;;;;;135.37;44.97;;;;;;;1.92;100.00;99475.28;5119095;28;20256;-28
2020/12/10 08:32:59;;;;;;;142.93;44.07;;;;;;;2.00;100.00;99474.50;5119270;28;20199;-28
2020/12/10 08:35:48;;;;;;;117.77;38.80;;;;;;;1.87;100.00;99474.34;5120016;28;20202;-28
2020/12/10 08:38:33;;;;;;;142.40;43.47;;;;;;;1.96;100.00;99466.81;5119197;28;20256;-28
2020/12/10 08:41:27;;;;;;;129.90;45.63;;;;;;;2.13;100.00;99462.78;5119747;28;20499;-28
2020/12/10 08:44:13;;;;;;;125.80;43.00;;;;;;;1.98;100.00;99470.25;5119663;28;20193;-28
2020/12/10 08:47:02;;;;;;;129.90;45.13;;;;;;;2.32;100.00;99469.81;5118804;28;20206;-28
2020/12/10 08:50:05;;;;;;;154.83;47.53;;;;;;;2.43;100.00;99470.78;5118654;28;20219;-28
2020/12/10 08:53:03;;;;;;;126.17;44.00;;;;;;;2.21;100.00;99468.81;5124750;28;20244;-28
2020/12/10 08:55:52;;;;;;;116.30;38.27;;;;;;;2.07;100.00;99471.22;5122530;28;20266;-28
2020/12/10 08:58:40;;;;;;;112.20;40.73;;;;;;;2.17;100.00;99456.88;5122618;28;20201;-28
2020/12/10 09:01:25;;;;;;;120.00;41.33;;;;;;;2.02;100.00;99465.19;5121981;28;20222;-29
2020/12/10 09:04:12;;;;;;;111.07;41.33;;;;;;;2.12;100.00;99458.53;5122591;28;20199;-28
2020/12/10 09:06:59;;;;;;;140.00;47.13;;;;;;;2.59;100.00;99465.84;5121049;28;20185;-29
2020/12/10 09:09:51;;;;;;;142.50;47.33;;;;;;;2.58;100.00;99459.91;5122203;28;20295;-29
2020/12/10 09:12:43;;;;;;;135.97;46.77;;;;;;;3.07;100.00;99458.63;5121936;28;20743;-28
2020/12/10 09:15:30;;;;;;;137.63;46.30;;;;;;;3.41;100.00;99467.38;5122030;28;20268;-28
2020/12/10 09:18:16;;;;;;;139.60;48.00;;;;;;;3.29;100.00;99469.00;5122654;28;20197;-29
2020/12/10 09:21:02;;;;;;;135.10;47.63;;;;;;;3.45;100.00;99470.81;5122112;28;20279;-29
2020/12/10 09:23:49;;;;;;;151.17;48.43;;;;;;;3.25;100.00;99473.25;5122622;28;20206;-29
2020/12/10 09:26:38;;;;;;;110.60;40.87;;;;;;;2.87;100.00;99470.38;5122236;28;20619;-31
2020/12/10 09:29:24;;;;;;;123.80;43.40;;;;;;;2.67;100.00;99466.78;5122435;28;20228;-28
2020/12/10 09:32:11;;;;;;;107.03;39.73;;;;;;;2.48;100.00;99468.28;5122831;28;20194;-29
2020/12/10 09:34:56;;;;;;;109.30;37.97;;;;;;;2.75;100.00;99463.47;5122362;28;20203;-28
2020/12/10 09:37:44;;;;;;;103.07;39.47;;;;;;;3.06;100.00;99463.72;5121453;28;20236;-28
2020/12/10 09:40:31;;;;;;;105.03;37.97;;;;;;;2.99;100.00;99470.50;5122237;28;20214;-28
2020/12/10 09:43:16;;;;;;;85.77;34.67;;;;;;;2.94;100.00;99469.59;5122192;28;20200;-29
2020/12/10 09:46:05;;;;;;;96.50;35.23;;;;;;;3.13;100.00;99467.19;5122451;28;20188;-29
2020/12/10 09:48:50;;;;;;;91.87;35.70;;;;;;;3.43;100.00;99459.72;5121854;28;20199;-29
2020/12/10 09:51:41;;;;;;;85.67;33.13;;;;;;;3.42;100.00;99455.47;5122222;28;20196;-29
2020/12/10 09:54:36;;;;;;;87.97;33.10;;;;;;;3.09;100.00;99456.94;5133259;28;20221;-30
2020/12/10 10:00:26;;;;;;;88.73;37.10;;;;;;;4.99;100.00;99451.78;5131200;28;20206;-30
2020/12/10 10:03:13;;;;;;;72.30;32.83;;;;;;;4.45;100.00;99453.41;5134201;28;20255;-33
2020/12/10 10:06:15;;;;;;;57.90;28.00;;;;;;;4.00;100.00;99450.66;5130271;28;20239;-29
2020/12/10 10:09:03;;;;;;;56.60;26.93;;;;;;;3.75;100.00;99449.72;5130563;28;20290;-30
2020/12/10 10:11:50;;;;;;;56.03;25.97;;;;;;;3.26;100.00;99451.09;5129132;28;20193;-30
2020/12/10 10:14:37;;;;;;;58.37;28.20;;;;;;;3.33;100.00;99447.75;5128098;28;20256;-29
2020/12/10 10:17:27;;;;;;;54.20;27.53;;;;;;;3.04;100.00;99444.97;5122221;28;20261;-31
2020/12/10 10:20:14;;;;;;;56.33;28.43;;;;;;;3.07;100.00;99452.66;5122618;28;20205;-30
2020/12/10 10:23:00;;;;;;;56.37;28.33;;;;;;;2.96;100.00;99457.69;5120631;28;20194;-29
2020/12/10 10:25:46;;;;;;;50.23;26.70;;;;;;;2.78;100.00;99452.44;5100184;28;20199;-35
2020/12/10 10:28:32;;;;;;;58.33;27.87;;;;;;;3.25;100.00;99450.25;5113380;28;20587;-30
2020/12/10 10:31:19;;;;;;;66.37;32.50;;;;;;;3.13;100.00;99447.59;5120279;28;20276;-30
2020/12/10 10:34:05;;;;;;;69.00;32.07;;;;;;;3.09;100.00;99449.28;5119949;28;20475;-29
2020/12/10 10:36:51;;;;;;;63.90;31.53;;;;;;;2.73;100.00;99448.97;5121298;28;20194;-30
2020/12/10 10:39:36;;;;;;;72.33;34.07;;;;;;;3.42;100.00;99440.13;5119813;28;20200;-30
2020/12/10 10:42:22;;;;;;;64.60;32.10;;;;;;;3.69;100.00;99437.75;5120161;28;20310;-30
2020/12/10 10:45:09;;;;;;;74.23;33.80;;;;;;;2.94;100.00;99435.53;5121265;28;20221;-30
2020/12/10 10:48:00;;;;;;;76.03;33.23;;;;;;;2.75;100.00;99440.47;5118476;28;20576;-30
2020/12/10 10:50:46;;;;;;;71.53;33.07;;;;;;;2.43;100.00;99429.09;5121452;28;20761;-30
2020/12/10 10:53:32;;;;;;;69.60;31.37;;;;;;;2.28;100.00;99441.69;5120972;28;20198;-29
2020/12/10 10:56:20;;;;;;;72.10;32.13;;;;;;;2.48;100.00;99436.78;5120538;28;20203;-30
2020/12/10 10:59:06;;;;;;;78.33;34.20;;;;;;;2.64;100.00;99438.66;5121540;28;20291;-29
2020/12/10 11:01:54;;;;;;;84.77;37.17;;;;;;;2.58;100.00;99436.06;5120615;28;20225;-30
2020/12/10 11:04:41;;;;;;;70.13;31.80;;;;;;;2.70;100.00;99429.38;5120345;28;20202;-30
2020/12/10 11:07:27;;;;;;;70.93;32.97;;;;;;;2.59;100.00;99430.13;5119908;28;20205;-30
2020/12/10 11:10:13;;;;;;;78.47;34.77;;;;;;;2.75;100.00;99431.97;5120176;28;20197;-29
2020/12/10 11:13:00;;;;;;;76.20;33.73;;;;;;;3.07;100.00;99420.31;5119104;28;20202;-30
2020/12/10 11:15:46;;;;;;;68.47;32.60;;;;;;;2.95;100.00;99424.47;5120023;28;20189;-29
2020/12/10 11:18:35;;;;;;;63.20;31.33;;;;;;;3.00;100.00;99415.13;5119216;28;20291;-30
2020/12/10 11:21:27;;;;;;;74.03;33.30;;;;;;;3.29;100.00;99425.56;5120027;28;20272;-30
2020/12/10 11:24:14;;;;;;;71.97;33.60;;;;;;;4.21;100.00;99421.75;5119786;28;20253;-40
2020/12/10 11:26:59;;;;;;;75.90;32.87;;;;;;;3.07;100.00;99416.91;5118700;28;20573;-30
2020/12/10 11:29:45;;;;;;;63.87;32.07;;;;;;;3.14;100.00;99415.25;5118692;28;20197;-30
2020/12/10 11:32:36;;;;;;;65.93;32.70;;;;;;;3.46;100.00;99416.31;5120886;28;20204;-30
2020/12/10 11:35:22;;;;;;;78.40;34.23;;;;;;;3.29;100.00;99416.19;5118716;28;20465;-30
2020/12/10 11:38:09;;;;;;;69.47;32.27;;;;;;;3.26;100.00;99405.09;5118433;28;20191;-30
2020/12/10 11:40:54;;;;;;;67.17;32.90;;;;;;;4.16;100.00;99398.72;5121277;28;20271;-30
2020/12/10 11:43:40;;;;;;;68.60;32.17;;;;;;;4.99;100.00;99397.13;5119268;28;20208;-30
2020/12/10 11:46:31;;;;;;;76.73;34.00;;;;;;;4.68;100.00;99399.66;5118177;28;20212;-30
2020/12/10 11:49:20;;;;;;;68.77;33.40;;;;;;;5.08;100.00;99397.09;5120652;28;20657;-30
2020/12/10 11:52:07;;;;;;;65.83;34.03;;;;;;;4.53;100.00;99397.09;5118460;28;20332;-30
2020/12/10 11:55:03;;;;;;;62.27;32.20;;;;;;;5.06;100.00;99397.09;5117360;28;20326;-28
2020/12/10 11:57:54;;;;;;;58.53;29.43;;;;;;;3.74;100.00;99399.41;5120769;28;20669;-28
2020/12/10 12:00:40;;;;;;;69.70;34.20;;;;;;;4.61;100.00;99392.81;5118593;28;20819;-31
2020/12/10 12:03:26;;;;;;;65.33;32.63;;;;;;;4.69;100.00;99401.38;5118176;28;20725;-31
2020/12/10 12:06:14;;;;;;;67.57;34.47;;;;;;;3.72;100.00;99401.97;5117756;28;20294;-30
2020/12/10 12:08:59;;;;;;;57.47;29.00;;;;;;;3.35;100.00;99400.91;5116616;28;20208;-29
2020/12/10 12:11:46;;;;;;;61.87;30.83;;;;;;;4.05;100.00;99397.81;5119205;28;20192;-29
2020/12/10 12:14:31;;;;;;;62.80;32.87;;;;;;;3.55;100.00;99402.72;5118466;28;20707;-30
2020/12/10 12:17:17;;;;;;;65.60;31.03;;;;;;;4.31;100.00;99397.91;5121677;28;20203;-29
2020/12/10 12:20:04;;;;;;;61.73;30.63;;;;;;;4.32;100.00;99395.34;5118870;28;20599;-29
2020/12/10 12:22:49;;;;;;;68.83;32.73;;;;;;;3.97;100.00;99399.50;5117679;28;20365;-29
2020/12/10 12:25:36;;;;;;;65.97;33.53;;;;;;;4.43;100.00;99397.91;5118140;28;20227;-30
2020/12/10 12:28:23;;;;;;;72.63;34.40;;;;;;;4.00;100.00;99404.63;5117501;28;20810;-29
2020/12/10 12:31:12;;;;;;;73.97;33.77;;;;;;;3.60;100.00;99396.78;5118129;28;20206;-31
2020/12/10 12:33:58;;;;;;;80.93;35.63;;;;;;;3.14;100.00;99394.81;5118327;28;20207;-29
2020/12/10 12:36:47;;;;;;;75.57;34.63;;;;;;;3.35;100.00;99402.63;5117762;28;20670;-29
2020/12/10 12:39:33;;;;;;;78.47;36.43;;;;;;;3.05;100.00;99393.88;5117911;28;20362;-29
2020/12/10 12:42:21;;;;;;;80.83;37.53;;;;;;;3.16;100.00;99393.13;5118554;28;20229;-30
2020/12/10 12:45:08;;;;;;;92.17;38.07;;;;;;;2.96;100.00;99390.44;5118349;28;20194;-29
2020/12/10 12:47:56;;;;;;;93.30;38.70;;;;;;;3.28;100.00;99385.53;5117617;28;20203;-29
2020/12/10 12:50:44;;;;;;;96.80;39.00;;;;;;;3.31;100.00;99383.00;5117585;28;20202;-29